Time;durP1;ratioP1;P1;durP2;ratioP2;P2;SDS_P1;SDS_P2;PMS_P1;PMS_P2;Temp;Humidity;BMP_temperature;BMP_pressure;BME280_temperature;BME280_humidity;BME280_pressure;Samples;Min_cycle;Max_cycle;Signal;HPM_P1;HPM_P2
2020/12/20 00:01:32;;;;;;;;;;;-0.50;99.90;;;-1.46;91.96;96225.00;10402179;28;1952;-82
2020/12/20 00:06:36;;;;;;;;;;;0.20;99.90;;;-1.40;91.67;96219.00;10400149;28;1702;-81
2020/12/20 00:11:38;;;;;;;;;;;-0.30;99.90;;;-1.30;91.39;96213.38;10404718;28;1798;-84
2020/12/20 00:16:40;;;;;;;;;;;1.10;99.90;;;-1.28;90.50;96219.28;10414691;28;1887;-82
2020/12/20 00:21:42;;;;;;;;;;;-0.20;99.90;;;-1.31;91.08;96230.22;10396334;28;1988;-83
2020/12/20 00:26:43;;;;;;;;;;;1.40;99.90;;;-1.20;91.13;96219.19;10393195;28;1881;-83
2020/12/20 00:31:45;;;;;;;;;;;-0.10;99.90;;;-1.22;90.52;96215.88;10388578;28;2115;-82
2020/12/20 00:36:47;;;;;;;;;;;-0.20;99.90;;;-1.23;89.92;96219.53;10392936;28;2044;-82
2020/12/20 00:41:49;;;;;;;;;;;-0.10;99.90;;;-1.40;90.94;96205.81;10399826;28;1923;-82
2020/12/20 00:46:51;;;;;;;;;;;-0.30;99.90;;;-1.43;91.48;96214.06;10401444;28;1940;-82
2020/12/20 00:51:55;;;;;;;;;;;0.90;99.90;;;-1.36;91.00;96199.13;10403576;28;1927;-81
2020/12/20 00:56:57;;;;;;;;;;;-0.30;99.90;;;-1.61;92.21;96205.78;10413600;28;1984;-82
2020/12/20 01:01:59;;;;;;;;;;;-0.50;99.90;;;-1.60;92.20;96209.22;10419131;28;1388;-83
2020/12/20 01:07:01;;;;;;;;;;;-0.60;99.90;;;-1.45;91.83;96199.47;10422940;28;1985;-84
2020/12/20 01:12:03;;;;;;;;;;;-0.50;99.90;;;-1.22;91.89;96221.16;10388837;28;2190;-82
2020/12/20 01:17:05;;;;;;;;;;;0.80;99.90;;;-1.38;90.34;96216.16;10397382;28;2049;-82
2020/12/20 01:22:13;;;;;;;;;;;-0.30;99.90;;;-1.54;91.30;96211.13;10388755;28;1954;-80
2020/12/20 01:27:14;;;;;;;;;;;0.90;99.90;;;-1.31;92.43;96227.59;10405812;28;1845;-83
2020/12/20 01:32:17;;;;;;;;;;;-0.30;99.90;;;-1.23;91.85;96226.63;10396972;28;1886;-83
2020/12/20 01:37:19;;;;;;;;;;;-0.20;99.90;;;-1.21;90.51;96216.72;10398088;28;1972;-83
2020/12/20 01:42:20;;;;;;;;;;;-0.10;99.90;;;-1.36;90.59;96225.50;10393886;28;1961;-83
2020/12/20 01:47:22;;;;;;;;;;;-0.20;99.90;;;-1.59;91.22;96214.34;10404462;28;2050;-81
2020/12/20 01:52:34;;;;;;;;;;;-0.40;99.90;;;-1.79;92.29;96224.63;10381592;28;1934;-82
2020/12/20 01:57:36;;;;;;;;;;;-0.60;99.90;;;-1.77;92.47;96216.56;10387970;28;1965;-83
2020/12/20 02:02:38;;;;;;;;;;;0.50;99.90;;;-1.78;92.92;96207.84;10404191;28;2075;-82
2020/12/20 02:07:40;;;;;;;;;;;-0.60;99.90;;;-1.67;92.39;96206.50;10402669;28;1831;-83
2020/12/20 02:12:41;;;;;;;;;;;0.70;99.90;;;-1.60;92.19;96196.03;10411524;28;2041;-82
2020/12/20 02:17:43;;;;;;;;;;;-0.50;99.90;;;-1.58;92.06;96188.78;10395128;28;2062;-82
2020/12/20 02:22:51;;;;;;;;;;;-0.50;99.90;;;-1.84;91.68;96189.31;10405727;28;1411;-82
2020/12/20 02:27:53;;;;;;;;;;;-0.60;99.90;;;-1.75;92.22;96183.72;10407886;28;1754;-82
2020/12/20 02:32:55;;;;;;;;;;;0.70;99.90;;;-1.87;91.97;96179.94;10413538;28;2095;-82
2020/12/20 02:37:56;;;;;;;;;;;-0.70;99.90;;;-1.84;92.81;96178.78;10379928;28;2245;-83
2020/12/20 02:42:58;;;;;;;;;;;-0.80;99.90;;;-1.79;92.50;96179.81;10395141;28;1952;-81
2020/12/20 02:48:00;;;;;;;;;;;-0.70;99.90;;;-1.80;92.55;96183.47;10395581;28;2064;-83
2020/12/20 02:53:08;;;;;;;;;;;-0.70;99.90;;;-1.84;92.73;96174.31;10396605;28;2119;-81
2020/12/20 02:58:10;;;;;;;;;;;-0.70;99.90;;;-1.87;92.65;96174.69;10399935;28;2071;-83
2020/12/20 03:03:12;;;;;;;;;;;-0.80;99.90;;;-2.09;93.57;96171.19;10406626;28;2239;-81
2020/12/20 03:08:13;;;;;;;;;;;0.80;99.90;;;-2.11;93.90;96161.84;10410324;28;2456;-81
2020/12/20 03:13:15;;;;;;;;;;;-1.10;99.90;;;-2.05;93.34;96161.91;10416069;28;1984;-83
2020/12/20 03:18:17;;;;;;;;;;;-1.00;99.90;;;-2.03;93.43;96167.84;10407922;28;2285;-83
2020/12/20 03:23:27;;;;;;;;;;;-0.70;99.90;;;-1.83;93.24;96177.78;10410032;28;2417;-83
2020/12/20 03:28:29;;;;;;;;;;;-0.40;99.90;;;-1.79;92.57;96176.38;10406658;28;1766;-84
2020/12/20 03:33:31;;;;;;;;;;;-0.70;99.90;;;-1.77;92.26;96167.31;10421026;28;2360;-84
2020/12/20 03:38:33;;;;;;;;;;;-0.70;99.90;;;-1.74;92.10;96174.81;10416800;28;1879;-82
2020/12/20 03:43:36;;;;;;;;;;;-0.70;99.90;;;-1.77;91.83;96169.13;10400713;28;1914;-83
2020/12/20 03:48:38;;;;;;;;;;;-0.60;99.90;;;-1.83;91.85;96154.88;10397028;28;2582;-83
2020/12/20 03:53:48;;;;;;;;;;;-0.70;99.90;;;-1.89;92.22;96155.63;10389837;28;1984;-82
2020/12/20 03:58:49;;;;;;;;;;;-0.70;99.90;;;-2.01;92.54;96151.84;10405959;28;1887;-82
2020/12/20 04:03:51;;;;;;;;;;;-0.80;99.90;;;-1.90;92.59;96154.00;10418100;28;2112;-84
2020/12/20 04:08:53;;;;;;;;;;;-0.80;99.90;;;-1.86;92.27;96155.22;10421651;28;1364;-83
2020/12/20 04:13:55;;;;;;;;;;;-0.80;99.90;;;-1.63;91.21;96166.44;10420948;28;1990;-82
2020/12/20 04:18:56;;;;;;;;;;;-0.60;99.90;;;-1.84;90.71;96174.31;10406636;28;1937;-80
2020/12/20 04:24:05;;;;;;;;;;;-0.60;99.90;;;-1.74;92.21;96180.09;10403647;28;2100;-81
2020/12/20 04:29:07;;;;;;;;;;;-0.70;99.90;;;-1.61;91.02;96173.31;10399900;28;1917;-81
2020/12/20 04:34:09;;;;;;;;;;;-0.50;99.90;;;-1.79;91.33;96171.91;10395157;28;1973;-82
2020/12/20 04:39:10;;;;;;;;;;;-0.60;99.90;;;-1.81;91.50;96167.84;10397931;28;2104;-81
2020/12/20 04:44:12;;;;;;;;;;;-0.60;99.90;;;-1.89;91.28;96160.88;10391722;28;2029;-80
2020/12/20 04:49:14;;;;;;;;;;;-0.70;99.90;;;-1.98;92.12;96159.34;10392657;28;2420;-82
2020/12/20 04:54:24;;;;;;;;;;;-0.80;99.90;;;-2.02;92.79;96160.75;10397132;28;2043;-81
2020/12/20 04:59:26;;;;;;;;;;;-0.90;99.90;;;-2.04;93.33;96165.34;10395049;28;2075;-81
2020/12/20 05:04:29;;;;;;;;;;;-1.00;99.90;;;-2.11;92.93;96170.56;10389209;28;2008;-79
2020/12/20 05:09:30;;;;;;;;;;;-1.00;99.90;;;-2.14;93.28;96159.59;10389699;28;2269;-80
2020/12/20 05:14:32;;;;;;;;;;;-1.00;99.90;;;-2.22;93.49;96165.78;10389062;28;2247;-83
2020/12/20 05:19:34;;;;;;;;;;;-1.10;99.90;;;-2.31;94.39;96172.94;10385110;28;2170;-80
2020/12/20 05:24:45;;;;;;;;;;;-1.20;99.90;;;-2.31;94.55;96167.69;10403389;28;2071;-81
2020/12/20 05:29:47;;;;;;;;;;;-1.20;99.90;;;-2.25;93.74;96164.31;10395820;28;1946;-81
2020/12/20 05:34:48;;;;;;;;;;;0.90;99.90;;;-2.18;94.20;96167.84;10396080;28;2029;-81
2020/12/20 05:39:50;;;;;;;;;;;-1.10;99.90;;;-2.09;93.92;96160.66;10396206;28;2057;-81
2020/12/20 05:44:52;;;;;;;;;;;-1.10;99.90;;;-2.00;93.16;96174.53;10399404;28;2001;-81
2020/12/20 05:49:54;;;;;;;;;;;0.40;99.90;;;-2.20;93.38;96159.31;10394712;28;1914;-80
2020/12/20 05:55:01;;;;;;;;;;;-1.00;99.90;;;-2.18;93.52;96167.84;10388434;28;2103;-80
2020/12/20 06:00:03;;;;;;;;;;;0.20;99.90;;;-2.20;93.59;96164.59;10394873;28;2024;-82
2020/12/20 06:05:05;;;;;;;;;;;-1.10;99.90;;;-2.24;93.73;96171.22;10394322;28;1968;-82
2020/12/20 06:10:07;;;;;;;;;;;-1.10;99.90;;;-2.17;93.89;96164.19;10395448;28;2015;-82
2020/12/20 06:15:09;;;;;;;;;;;-1.10;99.90;;;-2.33;93.98;96169.69;10372054;28;2044;-81
2020/12/20 06:20:11;;;;;;;;;;;-1.10;99.90;;;-2.42;94.18;96165.50;10382202;28;1980;-81
2020/12/20 06:25:23;;;;;;;;;;;0.30;99.90;;;-2.32;94.34;96176.59;10390944;28;2009;-81
2020/12/20 06:30:24;;;;;;;;;;;-1.20;99.90;;;-2.19;94.30;96174.09;10400623;28;1966;-81
2020/12/20 06:35:26;;;;;;;;;;;-1.10;99.90;;;-2.05;93.68;96171.63;10382360;28;1898;-81
2020/12/20 06:40:28;;;;;;;;;;;-1.00;99.90;;;-2.08;93.47;96158.84;10400513;28;2036;-83
2020/12/20 06:45:30;;;;;;;;;;;-1.00;99.90;;;-2.26;93.48;96159.25;10396531;28;2079;-83
2020/12/20 06:50:33;;;;;;;;;;;-1.10;99.90;;;-2.37;94.04;96164.97;10395904;28;1967;-82
2020/12/20 06:55:41;;;;;;;;;;;-1.20;99.90;;;-2.36;94.09;96158.69;10391540;28;2112;-81
2020/12/20 07:00:43;;;;;;;;;;;0.20;99.90;;;-2.33;94.26;96158.34;10397784;28;2112;-81
2020/12/20 07:05:45;;;;;;;;;;;-1.20;99.90;;;-2.31;93.45;96162.41;10399568;28;2070;-81
2020/12/20 07:10:46;;;;;;;;;;;-1.20;99.90;;;-2.34;93.74;96162.78;10405467;28;2044;-81
2020/12/20 07:15:48;;;;;;;;;;;-1.20;99.90;;;-2.30;93.82;96158.78;10412354;28;1871;-81
2020/12/20 07:20:50;;;;;;;;;;;-1.30;99.90;;;-2.23;93.82;96164.97;10414874;28;2055;-83
2020/12/20 07:25:58;;;;;;;;;;;-1.10;99.90;;;-2.06;92.94;96165.56;10417417;28;1571;-82
2020/12/20 07:30:59;;;;;;;;;;;-0.70;99.90;;;-2.23;92.59;96164.13;10414371;28;1804;-82
2020/12/20 07:36:01;;;;;;;;;;;-0.70;99.90;;;-2.17;92.51;96168.66;10415289;28;1895;-82
2020/12/20 07:41:03;;;;;;;;;;;-1.10;99.90;;;-1.99;92.86;96170.91;10376207;28;2390;-82
2020/12/20 07:46:05;;;;;;;;;;;-1.00;99.90;;;-1.98;92.29;96177.78;10370349;28;2430;-79
2020/12/20 07:51:07;;;;;;;;;;;-0.90;99.90;;;-1.85;90.97;96167.41;10376417;28;2354;-82
2020/12/20 07:56:17;;;;;;;;;;;-0.80;99.90;;;-1.66;90.66;96177.31;10384856;28;2013;-82
2020/12/20 08:01:23;;;;;;;;;;;-0.60;99.90;;;-1.60;89.79;96175.78;10403395;28;2096;-82
2020/12/20 08:06:25;;;;;;;;;;;0.90;99.90;;;-1.57;89.55;96162.22;10387746;28;1814;-81
2020/12/20 08:11:27;;;;;;;;;;;-0.50;99.90;;;-1.43;89.72;96173.72;10397545;28;1941;-81
2020/12/20 08:16:29;;;;;;;;;;;-0.50;99.90;;;-1.39;88.86;96177.63;10397336;28;2191;-80
2020/12/20 08:21:31;;;;;;;;;;;-0.30;99.90;;;-1.14;88.16;96173.56;10414076;28;2047;-84
2020/12/20 08:26:39;;;;;;;;;;;-0.10;99.90;;;-0.90;86.97;96169.69;10384077;28;2041;-83
2020/12/20 08:31:41;;;;;;;;;;;1.60;99.90;;;-0.90;86.08;96169.69;10385363;28;1836;-82
2020/12/20 08:36:43;;;;;;;;;;;0.10;99.90;;;-1.05;86.89;96179.50;10391671;28;1883;-82
2020/12/20 08:41:49;;;;;;;;;;;0.00;99.90;;;-0.92;86.20;96168.25;10402080;28;2110;-82
2020/12/20 08:46:56;;;;;;;;;;;0.10;99.90;;;-1.15;86.86;96174.56;10391929;28;1685;-83
2020/12/20 08:52:06;;;;;;;;;;;0.00;99.90;;;-0.79;86.93;96170.97;10394005;28;1920;-83
2020/12/20 08:57:10;;;;;;;;;;;0.80;99.90;;;-0.76;85.77;96172.41;10402472;28;1902;-85
2020/12/20 09:02:17;;;;;;;;;;;1.00;99.90;;;-0.65;84.47;96175.31;10385035;28;1885;-83
2020/12/20 09:07:27;;;;;;;;;;;0.40;99.90;;;-0.75;85.08;96168.78;10410578;28;1672;-82
2020/12/20 09:12:29;;;;;;;;;;;2.10;99.90;;;-0.96;85.89;96170.44;10381844;28;1725;-82
2020/12/20 09:17:32;;;;;;;;;;;0.20;99.90;;;-0.85;85.93;96163.81;10386562;28;1993;-82
2020/12/20 09:22:33;;;;;;;;;;;0.70;99.90;;;-0.75;86.27;96174.88;10397020;28;1916;-80
2020/12/20 09:27:36;;;;;;;;;;;1.70;99.90;;;-0.76;86.74;96183.81;10385233;28;1839;-83
2020/12/20 09:32:38;;;;;;;;;;;1.30;99.90;;;-0.33;85.23;96186.28;10397580;28;1729;-84
2020/12/20 09:37:40;;;;;;;;;;;1.00;99.90;;;-0.38;84.17;96183.41;10397309;28;1926;-83
2020/12/20 09:42:42;;;;;;;;;;;0.70;99.90;;;-0.20;84.28;96177.59;10416173;28;1697;-83
2020/12/20 09:47:46;;;;;;;;;;;0.80;99.90;;;-0.08;82.96;96184.78;10391515;28;1885;-82
2020/12/20 09:52:48;;;;;;;;;;;2.30;99.90;;;-0.25;82.96;96191.44;10370012;28;1912;-81
2020/12/20 09:57:50;;;;;;;;;;;0.90;99.90;;;-0.34;84.15;96203.97;10389566;28;1979;-82
2020/12/20 10:02:52;;;;;;;;;;;0.60;99.90;;;-0.02;84.11;96201.69;10375401;28;1918;-84
2020/12/20 10:07:53;;;;;;;;;;;0.80;99.90;;;0.29;81.76;96203.84;10381495;28;1536;-80
2020/12/20 10:12:55;;;;;;;;;;;1.20;99.90;;;0.45;80.22;96192.91;10393462;28;1997;-83
2020/12/20 10:18:01;;;;;;;;;;;1.40;99.90;;;0.37;80.69;96184.31;10392140;28;1897;-83
2020/12/20 10:23:03;;;;;;;;;;;1.40;99.90;;;0.69;80.36;96183.56;10402476;28;2197;-82
2020/12/20 10:28:05;;;;;;;;;;;1.50;99.90;;;0.41;81.19;96185.56;10403378;28;1964;-83
2020/12/20 10:33:07;;;;;;;;;;;1.50;99.90;;;0.26;81.90;96196.31;10399664;28;1283;-84
2020/12/20 10:38:09;;;;;;;;;;;1.70;99.90;;;0.22;82.15;96203.00;10412742;28;1898;-83
2020/12/20 10:43:11;;;;;;;;;;;1.20;99.90;;;0.33;82.01;96199.78;10410512;28;1566;-84
2020/12/20 10:48:13;;;;;;;;;;;1.30;99.90;;;0.27;82.88;96190.00;10406812;28;1905;-83
2020/12/20 10:53:16;;;;;;;;;;;1.30;99.90;;;0.15;83.16;96181.00;10397997;28;1339;-82
2020/12/20 10:58:18;;;;;;;;;;;1.20;99.90;;;0.37;82.32;96163.97;10402623;28;1895;-84
2020/12/20 11:03:20;;;;;;;;;;;1.30;99.90;;;0.33;82.12;96168.06;10397194;28;1594;-84
2020/12/20 11:08:22;;;;;;;;;;;1.30;99.90;;;0.20;83.31;96175.97;10393363;28;1622;-80
2020/12/20 11:13:24;;;;;;;;;;;1.20;99.90;;;-0.02;84.01;96178.72;10399385;28;1503;-82
2020/12/20 11:18:26;;;;;;;;;;;1.20;99.90;;;0.13;83.62;96183.88;10406938;28;1975;-81
2020/12/20 11:23:28;;;;;;;;;;;1.20;99.90;;;0.35;82.65;96189.00;10397475;28;1782;-81
2020/12/20 11:28:33;;;;;;;;;;;1.30;99.90;;;0.40;82.73;96174.19;10409163;28;1871;-84
2020/12/20 11:33:35;;;;;;;;;;;2.80;99.90;;;0.70;81.70;96168.50;10416208;28;1483;-80
2020/12/20 11:38:37;;;;;;;;;;;1.60;99.90;;;0.84;80.53;96167.53;10395157;28;1958;-81
2020/12/20 11:43:39;;;;;;;;;;;1.80;99.90;;;0.51;81.89;96170.94;10401807;28;1804;-83
2020/12/20 11:48:41;;;;;;;;;;;2.00;99.90;;;0.34;83.38;96159.09;10389291;28;1762;-81
2020/12/20 11:53:43;;;;;;;;;;;1.40;99.90;;;-0.22;85.19;96172.53;10395809;28;2059;-81
2020/12/20 11:58:49;;;;;;;;;;;1.40;99.90;;;-0.18;85.94;96165.84;10404136;28;2048;-81
2020/12/20 12:03:51;;;;;;;;;;;2.90;99.90;;;0.42;84.88;96163.38;10392290;28;1921;-81
2020/12/20 12:08:52;;;;;;;;;;;1.20;99.90;;;0.16;83.40;96156.22;10394507;28;1912;-81
2020/12/20 12:13:54;;;;;;;;;;;1.30;99.90;;;0.03;84.48;96141.13;10396669;28;2015;-81
2020/12/20 12:18:56;;;;;;;;;;;1.10;99.90;;;-0.06;84.89;96142.31;10391230;28;1906;-83
2020/12/20 12:23:58;;;;;;;;;;;1.10;99.90;;;-0.01;85.17;96151.25;10380346;28;1982;-82
2020/12/20 12:29:07;;;;;;;;;;;1.30;99.90;;;0.14;84.75;96147.66;10383121;28;1916;-82
2020/12/20 12:34:09;;;;;;;;;;;1.70;99.90;;;-0.17;85.68;96145.53;10381998;28;1746;-82
2020/12/20 12:39:11;;;;;;;;;;;1.00;99.90;;;-0.32;87.41;96162.34;10382492;28;2000;-82
2020/12/20 12:44:13;;;;;;;;;;;3.00;99.90;;;-0.07;87.14;96164.44;10393978;28;1942;-82
2020/12/20 12:49:16;;;;;;;;;;;1.60;99.90;;;-0.06;85.88;96164.28;10399216;28;1842;-80
2020/12/20 12:54:18;;;;;;;;;;;1.00;99.90;;;-0.06;86.30;96159.00;10379286;28;1916;-82
2020/12/20 12:59:30;;;;;;;;;;;1.60;99.90;;;0.06;85.45;96161.84;10385147;28;1902;-82
2020/12/20 13:04:34;;;;;;;;;;;3.00;99.90;;;0.24;85.68;96158.66;10376478;28;1959;-80
2020/12/20 13:09:36;;;;;;;;;;;1.10;99.90;;;0.21;84.99;96146.66;10382106;28;1942;-82
2020/12/20 13:14:39;;;;;;;;;;;1.40;99.90;;;0.03;86.35;96151.69;10396355;28;1883;-82
2020/12/20 13:19:41;;;;;;;;;;;1.80;99.90;;;0.26;85.69;96157.47;10389733;28;2155;-82
2020/12/20 13:24:43;;;;;;;;;;;2.90;99.90;;;0.57;84.51;96152.63;10379708;28;1911;-86
2020/12/20 13:29:58;;;;;;;;;;;1.50;99.90;;;0.56;84.48;96161.59;10390557;28;1718;-86
2020/12/20 13:35:08;;;;;;;;;;;3.00;99.90;;;0.54;84.05;96167.88;10384965;28;2093;-83
2020/12/20 13:40:12;;;;;;;;;;;1.60;99.90;;;0.57;83.85;96165.84;10398529;28;1930;-85
2020/12/20 13:45:14;;;;;;;;;;;1.50;99.90;;;0.49;84.30;96161.56;10409969;28;1802;-84
2020/12/20 13:50:16;;;;;;;;;;;1.50;99.90;;;0.34;85.13;96169.69;10409247;28;1771;-86
2020/12/20 13:55:22;;;;;;;;;;;2.80;99.90;;;0.19;85.56;96169.00;10420315;28;1958;-85
2020/12/20 14:00:32;;;;;;;;;;;3.70;99.90;;;0.17;86.25;96174.50;10433637;28;1699;-83
2020/12/20 14:05:35;;;;;;;;;;;2.00;99.90;;;0.10;86.53;96170.22;10402801;28;2006;-83
2020/12/20 14:10:39;;;;;;;;;;;2.20;99.90;;;0.18;86.46;96168.19;10388966;28;1913;-83
2020/12/20 14:15:42;;;;;;;;;;;2.60;99.90;;;0.22;86.40;96177.38;10425322;28;2014;-83
2020/12/20 14:20:44;;;;;;;;;;;2.00;99.90;;;0.18;86.87;96180.59;10406173;28;1780;-83
2020/12/20 14:26:07;;;;;;;;;;;2.70;99.90;;;0.39;86.22;96188.41;10415591;28;1854;-87
2020/12/20 14:31:39;;;;;;;;;;;2.30;99.90;;;0.41;85.50;96191.66;10433073;28;1730;-87
2020/12/20 14:36:43;;;;;;;;;;;2.70;99.90;;;0.31;85.47;96191.22;10413874;28;1875;-86
2020/12/20 14:41:51;;;;;;;;;;;1.50;99.90;;;0.17;86.66;96200.13;10409336;28;1948;-83
2020/12/20 14:46:57;;;;;;;;;;;3.40;99.90;;;0.28;86.77;96199.56;10405329;28;2008;-84
2020/12/20 14:52:26;;;;;;;;;;;2.90;99.90;;;0.18;86.80;96202.56;10401436;28;1633;-83
2020/12/20 14:57:32;;;;;;;;;;;2.00;99.90;;;0.11;87.39;96208.84;10404024;28;1969;-83
2020/12/20 15:02:35;;;;;;;;;;;2.40;99.90;;;0.02;88.01;96210.03;10399461;28;1943;-82
2020/12/20 15:07:48;;;;;;;;;;;1.00;99.90;;;-0.08;88.43;96205.09;10413472;28;2257;-84
2020/12/20 15:13:00;;;;;;;;;;;1.20;99.90;;;-0.16;89.17;96195.53;10402705;28;1794;-83
2020/12/20 15:18:06;;;;;;;;;;;2.20;99.90;;;-0.21;89.13;96197.94;10405218;28;1983;-84
2020/12/20 15:23:15;;;;;;;;;;;2.00;99.90;;;-0.18;89.65;96207.31;10392779;28;1997;-83
2020/12/20 15:28:22;;;;;;;;;;;2.30;99.90;;;-0.19;89.67;96217.06;10388461;28;1785;-84
2020/12/20 15:33:26;;;;;;;;;;;2.10;99.90;;;-0.11;89.08;96216.91;10406084;28;1769;-83
2020/12/20 15:38:48;;;;;;;;;;;2.40;99.90;;;-0.14;89.46;96209.34;10390475;28;1968;-83
2020/12/20 15:43:53;;;;;;;;;;;0.90;99.90;;;-0.15;89.39;96213.00;10401375;28;1226;-84
2020/12/20 15:49:02;;;;;;;;;;;3.00;99.90;;;-0.16;89.32;96227.22;10402074;28;2025;-84
2020/12/20 15:54:16;;;;;;;;;;;2.30;99.90;;;-0.27;89.74;96217.22;10396110;28;2047;-82
2020/12/20 15:59:31;;;;;;;;;;;0.80;99.90;;;-0.34;90.07;96226.91;10397689;28;2053;-85
2020/12/20 16:04:47;;;;;;;;;;;0.60;99.90;;;-0.35;89.79;96233.22;10392776;28;1913;-82
2020/12/20 16:10:11;;;;;;;;;;;0.70;99.90;;;-0.24;89.43;96239.78;10410170;28;1902;-84
2020/12/20 16:15:31;;;;;;;;;;;0.80;99.90;;;-0.30;89.79;96238.75;10383106;28;1957;-83
2020/12/20 16:20:40;;;;;;;;;;;1.60;99.90;;;-0.42;90.29;96242.94;10394559;28;2523;-85
2020/12/20 16:26:00;;;;;;;;;;;0.60;99.90;;;-0.48;90.66;96243.69;10391355;28;1913;-82
2020/12/20 16:31:08;;;;;;;;;;;1.20;99.90;;;-0.59;91.57;96248.50;10393331;28;1977;-82
2020/12/20 16:36:40;;;;;;;;;;;0.50;99.90;;;-0.38;91.11;96247.63;10402420;28;2040;-84
2020/12/20 16:53:10;;;;;;;;;;;2.80;99.90;;;-0.15;89.75;96250.00;10405491;28;2588;-85
2020/12/20 16:58:52;;;;;;;;;;;0.90;99.90;;;-0.16;89.28;96264.22;10410541;28;1999;-83
2020/12/20 17:04:43;;;;;;;;;;;0.90;99.90;;;-0.15;89.87;96260.56;10394536;28;1985;-84
2020/12/20 17:10:01;;;;;;;;;;;2.10;99.90;;;-0.12;89.95;96276.06;10397031;28;1814;-84
2020/12/20 17:21:13;;;;;;;;;;;1.00;99.90;;;-0.08;89.28;96287.03;10403572;28;2026;-86
2020/12/20 17:38:06;;;;;;;;;;;1.90;99.90;;;-0.01;89.29;96285.25;10265380;28;1875;-86
2020/12/20 17:43:20;;;;;;;;;;;1.90;99.90;;;0.03;89.25;96290.97;10284307;28;1986;-86
2020/12/20 18:00:36;;;;;;;;;;;0.80;99.90;;;-0.31;90.68;96296.03;10046525;29;1786;-84
2020/12/20 19:01:44;;;;;;;;;;;0.90;99.90;;;-0.10;90.66;96337.44;10390914;28;1940;-84
2020/12/20 19:07:51;;;;;;;;;;;2.50;99.90;;;0.08;90.20;96338.78;10398936;28;1988;-84
2020/12/20 19:50:20;;;;;;;;;;;1.40;99.90;;;0.24;89.07;96362.25;10154434;29;1863;-84
2020/12/20 20:07:20;;;;;;;;;;;2.20;99.90;;;0.35;89.03;96403.22;10155069;29;2183;-86
2020/12/20 20:12:54;;;;;;;;;;;1.30;99.90;;;0.29;88.61;96393.41;10149786;29;2084;-84
2020/12/20 20:47:24;;;;;;;;;;;2.00;99.90;;;0.03;89.92;96441.63;10233218;29;1891;-86
2020/12/20 20:52:49;;;;;;;;;;;2.20;99.90;;;0.05;89.82;96450.19;10229633;28;1901;-84
2020/12/20 20:58:48;;;;;;;;;;;1.10;99.90;;;0.18;89.71;96445.00;10290586;28;1972;-84
2020/12/20 21:04:08;;;;;;;;;;;1.80;99.90;;;0.25;89.73;96441.41;10302748;28;2042;-85
2020/12/20 21:09:28;;;;;;;;;;;1.20;99.90;;;0.17;89.24;96446.00;10303665;28;1989;-86
2020/12/20 21:39:21;;;;;;;;;;;;;;;;;;;;;
